createdAt,value
2018-05-17T00:04:25.768Z,79.27
2018-05-17T00:10:30.265Z,79.65
2018-05-17T00:16:35.454Z,79.43
2018-05-17T00:22:39.820Z,79.85
2018-05-17T00:28:44.162Z,80.09
2018-05-17T00:34:51.399Z,80.50
2018-05-17T00:40:55.768Z,80.19
2018-05-17T00:47:00.279Z,80.06
2018-05-17T00:53:22.482Z,80.00
2018-05-17T00:59:26.842Z,79.96
2018-05-17T01:05:31.218Z,79.67
2018-05-17T01:11:36.341Z,79.72
2018-05-17T01:17:40.740Z,79.64
2018-05-17T01:23:45.108Z,79.37
2018-05-17T01:29:49.469Z,79.78
2018-05-17T01:35:54.939Z,79.75
2018-05-17T01:41:59.456Z,79.60
2018-05-17T01:48:03.942Z,79.23
2018-05-17T01:54:08.319Z,79.32
2018-05-17T02:00:13.476Z,79.34
2018-05-17T02:06:17.933Z,79.57
2018-05-17T02:12:22.562Z,80.14
2018-05-17T02:18:26.941Z,79.65
2018-05-17T02:24:31.419Z,79.84
2018-05-17T02:30:36.867Z,79.12
2018-05-17T02:36:42.164Z,78.75
2018-05-17T02:42:46.638Z,79.54
2018-05-17T02:48:52.604Z,78.96
2018-05-17T02:54:57.081Z,78.70
2018-05-17T03:01:01.669Z,79.12
2018-05-17T03:07:06.256Z,79.34
2018-05-17T03:13:11.590Z,78.83
2018-05-17T03:19:16.141Z,78.52
2018-05-17T03:25:20.597Z,78.19
2018-05-17T03:31:25.952Z,78.49
2018-05-17T03:37:30.401Z,78.47
2018-05-17T03:43:34.951Z,77.96
2018-05-17T03:49:39.720Z,77.84
2018-05-17T03:55:44.299Z,77.78
2018-05-17T04:02:06.435Z,77.50
2018-05-17T04:08:11.566Z,77.25
2018-05-17T04:14:15.912Z,76.72
2018-05-17T04:20:21.679Z,76.85
2018-05-17T04:26:26.256Z,77.47
2018-05-17T04:32:30.882Z,77.66
2018-05-17T04:38:35.794Z,77.15
2018-05-17T04:44:40.784Z,75.73
2018-05-17T04:50:45.404Z,74.99
2018-05-17T04:56:50.925Z,75.21
2018-05-17T05:02:55.818Z,75.54
2018-05-17T05:09:00.160Z,76.02
2018-05-17T05:15:04.703Z,76.00
2018-05-17T05:21:09.088Z,74.89
2018-05-17T05:27:13.432Z,74.81
2018-05-17T05:33:17.804Z,75.22
2018-05-17T05:39:23.018Z,75.06
2018-05-17T05:45:28.309Z,74.19
2018-05-17T05:51:32.656Z,73.89
2018-05-17T05:57:37.769Z,73.19
2018-05-17T06:03:42.141Z,73.06
2018-05-17T06:09:46.491Z,71.66
2018-05-17T06:15:51.649Z,71.00
2018-05-17T06:21:56.015Z,70.83
2018-05-17T06:28:00.380Z,70.07
2018-05-17T06:34:04.820Z,69.26
2018-05-17T06:40:09.935Z,68.79
2018-05-17T06:46:14.316Z,68.20
2018-05-17T06:52:18.710Z,69.66
2018-05-17T06:58:24.592Z,70.12
2018-05-17T07:04:28.967Z,70.62
2018-05-17T07:10:33.434Z,70.93
2018-05-17T07:16:38.658Z,70.78
2018-05-17T07:22:43.004Z,70.87
2018-05-17T07:28:47.369Z,69.93
2018-05-17T07:34:52.915Z,69.68
2018-05-17T07:40:57.267Z,69.31
2018-05-17T07:47:01.660Z,66.70
2018-05-17T07:53:06.170Z,66.95
2018-05-17T07:59:10.581Z,67.12
2018-05-17T08:05:15.710Z,66.22
2018-05-17T08:11:20.182Z,64.59
2018-05-17T08:17:24.628Z,63.16
2018-05-17T08:23:29.753Z,61.57
2018-05-17T08:29:34.096Z,59.44
2018-05-17T08:35:39.294Z,57.40
2018-05-17T08:41:43.818Z,57.42
2018-05-17T08:47:48.201Z,56.84
2018-05-17T09:06:52.585Z,59.47
2018-05-17T09:12:57.069Z,57.92
2018-05-17T09:19:01.446Z,57.74
2018-05-17T09:25:05.983Z,55.34
2018-05-17T09:31:10.385Z,53.63
2018-05-17T09:37:14.755Z,53.15
2018-05-17T09:43:19.980Z,53.50
2018-05-17T09:49:24.579Z,52.65
2018-05-17T09:55:28.957Z,53.60
2018-05-17T10:01:34.141Z,52.05
2018-05-17T10:07:38.668Z,53.83
2018-05-17T10:13:44.037Z,53.01
2018-05-17T10:19:48.393Z,53.11
2018-05-17T10:25:52.870Z,52.28
2018-05-17T10:31:57.339Z,52.62
2018-05-17T10:38:01.697Z,50.65
2018-05-17T10:44:06.286Z,50.28
2018-05-17T10:50:10.641Z,50.48
2018-05-17T10:56:14.993Z,50.09
2018-05-17T11:02:20.337Z,48.15
2018-05-17T11:08:24.740Z,46.61
2018-05-17T11:14:29.489Z,46.15
2018-05-17T11:20:33.894Z,46.02
2018-05-17T11:26:38.283Z,45.35
2018-05-17T11:32:42.645Z,44.72
2018-05-17T11:38:46.989Z,46.28
2018-05-17T11:44:51.670Z,42.87
2018-05-17T11:50:56.030Z,42.58
2018-05-17T11:57:00.383Z,42.97
2018-05-17T12:03:05.494Z,43.45
2018-05-17T12:09:09.889Z,44.82
2018-05-17T12:15:14.280Z,42.08
2018-05-17T12:21:18.772Z,39.00
2018-05-17T12:27:24.774Z,38.01
2018-05-17T12:33:29.196Z,39.46
2018-05-17T12:39:34.329Z,38.28
2018-05-17T12:45:38.725Z,38.01
2018-05-17T12:51:43.097Z,36.26
2018-05-17T12:57:47.586Z,37.09
2018-05-17T13:03:52.138Z,38.13
2018-05-17T13:09:56.999Z,38.85
2018-05-17T13:16:01.470Z,34.69
2018-05-17T13:22:06.684Z,34.71
2018-05-17T13:28:11.271Z,36.75
2018-05-17T13:34:16.447Z,39.05
2018-05-17T13:40:20.850Z,39.20
2018-05-17T13:46:25.220Z,40.13
2018-05-17T13:52:29.621Z,38.27
2018-05-17T13:58:35.607Z,36.70
2018-05-17T14:04:40.080Z,34.85
2018-05-17T14:10:45.272Z,35.07
2018-05-17T14:16:49.804Z,35.24
2018-05-17T14:22:54.942Z,34.46
2018-05-17T14:28:59.294Z,32.86
2018-05-17T14:35:03.813Z,32.81
2018-05-17T14:41:08.160Z,31.14
2018-05-17T14:47:12.589Z,33.66
2018-05-17T14:53:16.979Z,34.89
2018-05-17T14:59:23.477Z,32.41
2018-05-17T15:05:27.924Z,32.99
2018-05-17T15:11:32.329Z,30.33
2018-05-17T15:17:36.890Z,30.59
2018-05-17T15:23:41.653Z,30.80
2018-05-17T15:29:46.095Z,32.62
2018-05-17T15:35:50.525Z,31.87
2018-05-17T15:41:55.656Z,32.84
2018-05-17T15:48:00.079Z,33.21
2018-05-17T15:54:04.438Z,33.54
2018-05-17T16:00:08.836Z,34.66
2018-05-17T16:06:13.268Z,34.97
2018-05-17T16:12:18.422Z,34.54
2018-05-17T16:18:23.824Z,35.63
2018-05-17T16:24:29.036Z,35.71
2018-05-17T16:30:33.465Z,35.80
2018-05-17T16:36:37.841Z,36.04
2018-05-17T16:42:42.234Z,34.27
2018-05-17T16:48:46.577Z,34.00
2018-05-17T16:54:51.988Z,34.65
2018-05-17T17:00:56.476Z,32.76
2018-05-17T17:07:00.824Z,31.84
2018-05-17T17:13:05.228Z,32.83
2018-05-17T17:19:09.609Z,36.00
2018-05-17T17:25:14.009Z,35.89
2018-05-17T17:31:18.385Z,38.50
2018-05-17T17:37:23.423Z,38.10
2018-05-17T17:43:27.803Z,40.44
2018-05-17T17:49:32.194Z,41.04
2018-05-17T17:55:36.630Z,43.27
2018-05-17T18:01:41.766Z,44.07
2018-05-17T18:07:46.162Z,46.18
2018-05-17T18:13:50.844Z,47.50
2018-05-17T18:19:56.006Z,51.31
2018-05-17T18:26:00.428Z,54.54
2018-05-17T18:32:05.534Z,57.30
2018-05-17T18:38:10.656Z,59.27
2018-05-17T18:44:15.064Z,60.70
2018-05-17T18:50:19.629Z,61.20
2018-05-17T18:56:24.319Z,61.66
2018-05-17T19:02:28.729Z,62.70
2018-05-17T19:08:34.029Z,63.13
2018-05-17T19:14:38.436Z,63.69
2018-05-17T19:20:42.883Z,63.14
2018-05-17T19:26:48.012Z,63.76
2018-05-17T19:32:52.717Z,64.30
2018-05-17T19:38:57.185Z,64.75
2018-05-17T19:45:01.575Z,64.98
2018-05-17T19:51:06.023Z,65.28
2018-05-17T19:57:10.380Z,66.47
2018-05-17T20:03:14.737Z,67.06
2018-05-17T20:09:19.971Z,67.88
2018-05-17T20:15:24.490Z,67.85
2018-05-17T20:21:29.124Z,67.96
2018-05-17T20:27:33.515Z,67.92
2018-05-17T20:33:37.891Z,68.47
2018-05-17T20:39:42.286Z,68.36
2018-05-17T20:45:46.719Z,68.23
2018-05-17T20:51:52.194Z,68.66
2018-05-17T20:57:56.705Z,69.07
2018-05-17T21:04:01.128Z,69.56
2018-05-17T21:10:06.361Z,69.12
2018-05-17T21:16:10.735Z,69.06
2018-05-17T21:22:15.858Z,68.66
2018-05-17T21:28:20.581Z,69.20
2018-05-17T21:34:25.696Z,68.78
2018-05-17T21:40:30.040Z,69.25
2018-05-17T21:46:34.583Z,69.00
2018-05-17T21:52:38.983Z,69.02
2018-05-17T21:58:44.120Z,69.04
2018-05-17T22:04:48.725Z,68.94
2018-05-17T22:10:54.231Z,69.71
2018-05-17T22:16:58.716Z,68.94
2018-05-17T22:23:03.130Z,68.74
2018-05-17T22:29:07.554Z,68.71
2018-05-17T22:35:12.117Z,69.19
2018-05-17T22:41:16.506Z,69.02
2018-05-17T22:47:21.820Z,69.31
2018-05-17T22:53:26.452Z,69.67
2018-05-17T22:59:31.833Z,69.24
2018-05-17T23:05:36.355Z,69.70
2018-05-17T23:11:40.754Z,69.54
2018-05-17T23:17:46.100Z,70.09
2018-05-17T23:23:51.888Z,69.51
2018-05-17T23:29:56.598Z,69.84
2018-05-17T23:36:01.160Z,70.48
2018-05-17T23:42:05.855Z,70.80
2018-05-17T23:48:10.290Z,70.67
2018-05-17T23:54:14.717Z,70.69
